createdAt,value
2019-05-22T00:02:34.987Z,25.50
2019-05-22T00:05:14.427Z,24.90
2019-05-22T00:07:47.898Z,25.37
2019-05-22T00:10:23.658Z,25.27
2019-05-22T00:12:56.935Z,24.50
2019-05-22T00:15:30.102Z,25.17
2019-05-22T00:18:03.875Z,23.80
2019-05-22T00:20:36.424Z,24.37
2019-05-22T00:23:10.392Z,23.37
2019-05-22T00:25:43.618Z,22.80
2019-05-22T00:28:16.886Z,24.10
2019-05-22T00:30:49.828Z,23.67
2019-05-22T00:33:22.285Z,23.73
2019-05-22T00:35:56.090Z,23.40
2019-05-22T00:38:28.791Z,22.73
2019-05-22T00:41:07.786Z,22.87
2019-05-22T00:43:42.131Z,22.67
2019-05-22T00:46:19.481Z,21.80
2019-05-22T00:48:52.193Z,22.77
2019-05-22T00:51:40.923Z,21.20
2019-05-22T00:54:21.302Z,20.97
2019-05-22T00:57:03.212Z,19.80
2019-05-22T00:59:37.440Z,19.43
2019-05-22T01:02:10.280Z,20.27
2019-05-22T01:04:42.298Z,20.45
2019-05-22T01:07:21.367Z,19.30
2019-05-22T01:09:56.645Z,19.67
2019-05-22T01:12:29.588Z,20.40
2019-05-22T01:15:06.336Z,19.90
2019-05-22T01:17:38.157Z,19.33
2019-05-22T01:20:12.943Z,19.93
2019-05-22T01:22:47.433Z,19.37
2019-05-22T01:25:22.009Z,19.30
2019-05-22T01:27:53.464Z,18.98
2019-05-22T01:30:31.458Z,19.60
2019-05-22T01:33:07.307Z,19.00
2019-05-22T01:35:40.266Z,20.77
2019-05-22T01:38:13.930Z,21.70
2019-05-22T01:40:53.551Z,21.20
2019-05-22T01:43:26.130Z,22.93
2019-05-22T01:46:00.854Z,22.30
2019-05-22T01:48:36.838Z,20.77
2019-05-22T01:51:10.669Z,22.80
2019-05-22T01:53:43.888Z,22.80
2019-05-22T01:56:16.989Z,21.93
2019-05-22T01:58:49.862Z,22.97
2019-05-22T02:01:24.339Z,23.05
2019-05-22T02:03:56.741Z,23.27
2019-05-22T02:06:28.334Z,22.03
2019-05-22T02:09:16.580Z,20.93
2019-05-22T02:11:52.183Z,21.27
2019-05-22T02:14:25.465Z,22.32
2019-05-22T02:16:58.181Z,21.33
2019-05-22T02:19:29.558Z,20.53
2019-05-22T02:22:02.146Z,20.30
2019-05-22T02:24:34.445Z,21.13
2019-05-22T02:27:06.100Z,18.80
2019-05-22T02:29:38.015Z,19.60
2019-05-22T02:32:11.486Z,18.63
2019-05-22T02:34:44.244Z,18.82
2019-05-22T02:37:17.202Z,19.67
2019-05-22T02:39:50.314Z,20.67
2019-05-22T02:42:26.827Z,20.68
2019-05-22T02:44:58.701Z,19.57
2019-05-22T02:47:30.535Z,19.40
2019-05-22T02:50:01.731Z,19.03
2019-05-22T02:52:35.454Z,19.13
2019-05-22T02:55:06.789Z,18.17
2019-05-22T02:57:37.817Z,19.27
2019-05-22T03:00:09.269Z,18.40
2019-05-22T03:02:50.143Z,20.47
2019-05-22T03:05:23.071Z,21.52
2019-05-22T03:07:54.718Z,18.97
2019-05-22T03:10:26.601Z,18.43
2019-05-22T03:12:58.491Z,19.17
2019-05-22T03:15:29.586Z,19.30
2019-05-22T03:18:05.207Z,18.17
2019-05-22T03:20:37.730Z,18.80
2019-05-22T03:23:40.470Z,18.70
2019-05-22T03:26:13.303Z,17.97
2019-05-22T03:28:45.954Z,19.40
2019-05-22T03:31:18.746Z,20.60
2019-05-22T03:33:49.772Z,20.60
2019-05-22T03:36:22.369Z,19.80
2019-05-22T03:38:53.732Z,21.30
2019-05-22T03:41:24.975Z,21.37
2019-05-22T03:43:58.552Z,22.03
2019-05-22T03:46:40.088Z,22.10
2019-05-22T03:49:29.285Z,23.00
2019-05-22T03:51:49.241Z,23.73
2019-05-22T03:54:21.837Z,22.47
2019-05-22T03:56:54.399Z,24.23
2019-05-22T03:59:25.848Z,21.80
2019-05-22T04:01:57.287Z,23.27
2019-05-22T04:04:36.790Z,21.67
2019-05-22T04:07:10.980Z,22.47
2019-05-22T04:09:45.075Z,22.90
2019-05-22T04:12:16.922Z,23.57
2019-05-22T04:14:48.403Z,20.87
2019-05-22T04:17:21.464Z,22.33
2019-05-22T04:19:52.755Z,21.52
2019-05-22T04:22:24.489Z,21.97
2019-05-22T04:24:55.977Z,22.43
2019-05-22T04:27:27.819Z,23.83
2019-05-22T04:29:59.116Z,22.63
2019-05-22T04:32:33.121Z,20.80
2019-05-22T04:35:07.082Z,22.43
2019-05-22T04:37:38.497Z,22.60
2019-05-22T04:40:48.792Z,21.97
2019-05-22T04:43:23.938Z,22.33
2019-05-22T04:45:56.896Z,21.87
2019-05-22T04:48:29.341Z,21.30
2019-05-22T04:51:19.896Z,21.43
2019-05-22T04:53:51.230Z,21.73
2019-05-22T04:56:23.715Z,20.63
2019-05-22T04:58:55.294Z,22.03
2019-05-22T05:01:27.533Z,20.40
2019-05-22T05:03:58.913Z,21.48
2019-05-22T05:06:33.114Z,19.80
2019-05-22T05:09:10.113Z,20.35
2019-05-22T05:11:41.348Z,20.30
2019-05-22T05:14:12.434Z,19.10
2019-05-22T05:16:43.620Z,19.30
2019-05-22T05:19:14.715Z,18.63
2019-05-22T05:21:46.795Z,19.17
2019-05-22T05:24:17.935Z,17.73
2019-05-22T05:26:50.441Z,17.20
2019-05-22T05:29:31.079Z,18.03
2019-05-22T05:32:03.290Z,17.83
2019-05-22T05:34:59.798Z,17.77
2019-05-22T05:37:31.562Z,18.20
2019-05-22T05:40:28.975Z,17.67
2019-05-22T05:43:00.962Z,16.83
2019-05-22T05:45:33.705Z,16.33
2019-05-22T05:48:07.282Z,14.77
2019-05-22T05:50:40.684Z,14.47
2019-05-22T05:53:16.749Z,14.07
2019-05-22T05:56:13.517Z,14.50
2019-05-22T05:58:45.637Z,12.87
2019-05-22T06:01:28.131Z,13.85
2019-05-22T06:03:59.732Z,14.57
2019-05-22T06:07:15.760Z,14.50
2019-05-22T06:09:55.883Z,15.03
2019-05-22T06:12:27.206Z,16.50
2019-05-22T06:14:58.717Z,15.80
2019-05-22T06:18:08.615Z,15.57
2019-05-22T06:20:41.247Z,14.67
2019-05-22T06:23:52.272Z,12.47
2019-05-22T06:27:11.216Z,13.10
2019-05-22T06:30:13.630Z,13.87
2019-05-22T06:33:21.521Z,13.17
2019-05-22T06:35:52.816Z,14.30
2019-05-22T06:38:47.113Z,14.83
2019-05-22T06:41:18.907Z,13.57
2019-05-22T06:44:28.773Z,12.20
2019-05-22T06:46:59.961Z,11.08
2019-05-22T06:49:44.591Z,11.43
2019-05-22T06:52:15.943Z,11.47
2019-05-22T06:54:48.631Z,11.30
2019-05-22T06:57:26.701Z,11.43
2019-05-22T07:00:14.080Z,12.47
2019-05-22T07:02:35.943Z,11.13
2019-05-22T07:05:07.497Z,11.93
2019-05-22T07:07:39.335Z,11.50
2019-05-22T07:10:15.151Z,13.77
2019-05-22T07:12:50.506Z,13.13
2019-05-22T07:15:28.844Z,13.33
2019-05-22T07:18:01.331Z,12.47
2019-05-22T07:20:35.603Z,13.67
2019-05-22T07:23:07.917Z,12.03
2019-05-22T07:25:42.039Z,10.43
2019-05-22T07:28:14.129Z,10.63
2019-05-22T07:30:45.921Z,9.70
2019-05-22T07:33:17.984Z,9.53
2019-05-22T07:36:08.677Z,9.13
2019-05-22T07:38:22.715Z,8.20
2019-05-22T07:40:53.973Z,8.97
2019-05-22T07:43:25.283Z,7.60
2019-05-22T07:45:57.763Z,6.63
2019-05-22T07:48:29.592Z,7.47
2019-05-22T07:51:01.479Z,5.87
2019-05-22T07:53:32.545Z,5.77
2019-05-22T07:56:08.649Z,6.40
2019-05-22T07:58:40.786Z,5.80
2019-05-22T08:01:12.134Z,6.60
2019-05-22T08:03:44.903Z,6.20
2019-05-22T08:06:16.639Z,6.10
2019-05-22T08:08:49.215Z,6.17
2019-05-22T08:11:20.917Z,6.10
2019-05-22T08:13:52.274Z,5.87
2019-05-22T08:16:24.120Z,5.60
2019-05-22T08:18:55.464Z,6.07
2019-05-22T08:21:27.053Z,5.40
2019-05-22T08:23:58.601Z,5.60
2019-05-22T08:26:30.960Z,6.47
2019-05-22T08:29:03.262Z,6.30
2019-05-22T08:31:34.804Z,5.50
2019-05-22T08:34:06.445Z,5.33
2019-05-22T08:36:38.694Z,7.23
2019-05-22T08:39:11.424Z,6.57
2019-05-22T08:41:43.575Z,6.57
2019-05-22T08:44:17.537Z,7.00
2019-05-22T08:46:48.620Z,7.53
2019-05-22T08:49:21.600Z,7.70
2019-05-22T08:51:52.922Z,8.13
2019-05-22T08:54:24.275Z,8.43
2019-05-22T08:56:56.324Z,8.57
2019-05-22T08:59:27.346Z,8.20
2019-05-22T09:01:58.691Z,7.70
2019-05-22T09:04:29.963Z,8.90
2019-05-22T09:07:01.344Z,8.50
2019-05-22T09:09:32.332Z,8.73
2019-05-22T09:12:04.986Z,8.38
2019-05-22T09:14:36.042Z,8.07
2019-05-22T09:17:07.586Z,7.77
2019-05-22T09:19:38.618Z,7.17
2019-05-22T09:22:09.774Z,7.67
2019-05-22T09:24:43.241Z,7.60
2019-05-22T09:27:15.003Z,7.50
2019-05-22T09:29:46.379Z,7.60
2019-05-22T09:32:18.732Z,7.27
2019-05-22T09:34:50.586Z,7.53
2019-05-22T09:37:22.406Z,6.73
2019-05-22T09:39:53.675Z,6.97
2019-05-22T09:42:26.602Z,6.93
2019-05-22T09:44:57.795Z,7.23
2019-05-22T09:47:29.196Z,6.17
2019-05-22T09:50:00.904Z,6.23
2019-05-22T09:52:35.918Z,6.83
2019-05-22T09:55:08.465Z,6.70
2019-05-22T09:57:39.719Z,7.27
2019-05-22T10:00:13.213Z,8.97
2019-05-22T10:02:44.389Z,9.80
2019-05-22T10:05:17.455Z,9.03
2019-05-22T10:08:00.531Z,9.37
2019-05-22T10:10:22.804Z,9.70
2019-05-22T10:12:54.585Z,9.30
2019-05-22T10:15:26.426Z,9.03
2019-05-22T10:17:57.748Z,9.40
2019-05-22T10:20:29.561Z,8.87
2019-05-22T10:23:14.703Z,8.33
2019-05-22T10:25:34.194Z,8.40
2019-05-22T10:28:07.177Z,8.70
2019-05-22T10:30:38.663Z,9.07
2019-05-22T10:33:09.917Z,9.47
2019-05-22T10:35:41.061Z,8.83
2019-05-22T10:38:12.330Z,9.30
2019-05-22T10:40:43.579Z,10.13
2019-05-22T10:43:14.571Z,8.80
2019-05-22T10:45:45.611Z,8.17
2019-05-22T10:48:17.026Z,8.77
2019-05-22T10:50:48.198Z,8.50
2019-05-22T10:53:32.820Z,8.53
2019-05-22T10:55:52.957Z,7.90
2019-05-22T10:58:23.972Z,7.20
2019-05-22T11:00:55.129Z,8.50
2019-05-22T11:03:26.603Z,7.20
2019-05-22T11:06:07.300Z,8.00
2019-05-22T11:08:34.337Z,7.58
2019-05-22T11:11:04.687Z,7.37
2019-05-22T11:13:36.892Z,7.40
2019-05-22T11:16:08.919Z,7.57
2019-05-22T11:18:40.325Z,7.75
2019-05-22T11:21:12.454Z,6.83
2019-05-22T11:23:51.951Z,6.27
2019-05-22T11:26:16.901Z,7.30
2019-05-22T11:28:48.614Z,6.53
2019-05-22T11:31:20.101Z,6.43
2019-05-22T11:33:51.171Z,6.53
2019-05-22T11:36:24.099Z,7.92
2019-05-22T11:38:55.499Z,7.20
2019-05-22T11:41:27.006Z,6.97
2019-05-22T11:43:58.123Z,7.80
2019-05-22T11:46:29.542Z,6.43
2019-05-22T11:49:01.731Z,7.40
2019-05-22T11:51:32.798Z,7.53
2019-05-22T11:54:09.389Z,7.17
2019-05-22T11:56:37.908Z,6.87
2019-05-22T11:59:11.288Z,7.23
2019-05-22T12:01:42.722Z,7.20
2019-05-22T12:04:14.060Z,7.07
2019-05-22T12:06:45.254Z,6.50
2019-05-22T12:09:16.503Z,7.47
2019-05-22T12:11:48.254Z,7.87
2019-05-22T12:14:19.786Z,7.17
2019-05-22T12:16:53.154Z,7.27
2019-05-22T12:19:24.508Z,8.40
2019-05-22T12:21:55.843Z,8.17
2019-05-22T12:24:30.270Z,7.50
2019-05-22T12:26:59.752Z,8.23
2019-05-22T12:29:31.215Z,8.23
2019-05-22T12:32:02.328Z,7.80
2019-05-22T12:34:33.886Z,6.33
2019-05-22T12:37:05.510Z,7.03
2019-05-22T12:39:38.986Z,6.47
2019-05-22T12:42:10.759Z,5.72
2019-05-22T12:44:42.118Z,5.97
2019-05-22T12:47:14.118Z,5.47
2019-05-22T12:49:45.399Z,5.87
2019-05-22T12:52:16.799Z,6.17
2019-05-22T12:54:52.416Z,5.83
2019-05-22T12:57:20.919Z,5.83
2019-05-22T12:59:53.800Z,5.53
2019-05-22T13:02:25.361Z,4.93
2019-05-22T13:04:56.966Z,5.30
2019-05-22T13:07:28.403Z,5.63
2019-05-22T13:09:59.572Z,5.93
2019-05-22T13:12:31.443Z,5.73
2019-05-22T13:15:09.891Z,5.27
2019-05-22T13:17:36.243Z,5.47
2019-05-22T13:20:08.311Z,5.07
2019-05-22T13:22:43.758Z,5.30
2019-05-22T13:25:17.196Z,5.13
2019-05-22T13:27:48.924Z,4.27
2019-05-22T13:30:23.151Z,5.17
2019-05-22T13:32:57.047Z,4.85
2019-05-22T13:35:29.583Z,5.67
2019-05-22T13:38:02.766Z,5.07
2019-05-22T13:40:34.601Z,4.90
2019-05-22T13:43:06.032Z,4.40
2019-05-22T13:45:37.668Z,3.83
2019-05-22T13:48:09.137Z,4.73
2019-05-22T13:50:40.555Z,4.13
2019-05-22T13:53:13.292Z,4.43
2019-05-22T13:55:45.530Z,4.20
2019-05-22T13:58:17.161Z,4.00
2019-05-22T14:00:49.164Z,4.03
2019-05-22T14:03:20.818Z,5.93
2019-05-22T14:05:52.333Z,7.53
2019-05-22T14:08:23.831Z,7.80
2019-05-22T14:10:56.302Z,7.95
2019-05-22T14:13:27.835Z,7.23
2019-05-22T14:15:59.187Z,6.40
2019-05-22T14:18:31.306Z,5.90
2019-05-22T14:21:02.616Z,5.07
2019-05-22T14:23:34.057Z,5.67
2019-05-22T14:26:05.665Z,5.10
2019-05-22T14:28:37.848Z,5.87
2019-05-22T14:31:08.977Z,5.43
2019-05-22T14:33:40.756Z,5.33
2019-05-22T14:36:12.583Z,4.15
2019-05-22T14:38:43.938Z,4.95
2019-05-22T14:41:15.451Z,5.27
2019-05-22T14:43:46.570Z,5.10
2019-05-22T14:46:17.762Z,5.17
2019-05-22T14:48:49.096Z,4.87
2019-05-22T14:51:21.370Z,4.63
2019-05-22T14:53:54.546Z,4.30
2019-05-22T14:56:26.305Z,3.60
2019-05-22T14:58:57.404Z,3.17
2019-05-22T15:04:06.951Z,3.03
2019-05-22T15:06:38.566Z,3.37
2019-05-22T15:09:10.456Z,3.00
2019-05-22T15:11:41.711Z,3.20
2019-05-22T15:14:12.966Z,3.87
2019-05-22T15:16:44.681Z,4.20
2019-05-22T15:19:15.781Z,3.62
2019-05-22T15:21:46.834Z,3.40
2019-05-22T15:24:18.384Z,3.70
2019-05-22T15:26:49.665Z,3.23
2019-05-22T15:29:21.101Z,3.60
2019-05-22T15:31:52.207Z,3.60
2019-05-22T15:34:24.081Z,3.90
2019-05-22T15:36:55.356Z,4.37
2019-05-22T15:39:28.768Z,3.67
2019-05-22T15:42:00.425Z,3.63
2019-05-22T15:44:32.161Z,3.75
2019-05-22T15:47:03.512Z,3.03
2019-05-22T15:49:35.087Z,3.80
2019-05-22T15:52:09.287Z,2.90
2019-05-22T15:54:40.373Z,2.60
2019-05-22T15:57:12.803Z,3.43
2019-05-22T15:59:45.103Z,3.03
2019-05-22T16:02:20.979Z,3.30
2019-05-22T16:04:51.962Z,2.60
2019-05-22T16:07:23.280Z,3.23
2019-05-22T16:09:54.364Z,3.70
2019-05-22T16:12:26.065Z,3.43
2019-05-22T16:14:59.133Z,3.37
2019-05-22T16:17:46.856Z,3.07
2019-05-22T16:20:21.246Z,3.92
2019-05-22T16:22:54.759Z,3.23
2019-05-22T16:25:26.339Z,3.27
2019-05-22T16:27:57.795Z,3.20
2019-05-22T16:30:30.260Z,3.10
2019-05-22T16:33:03.709Z,3.30
2019-05-22T16:35:34.996Z,3.33
2019-05-22T16:38:06.097Z,2.63
2019-05-22T16:40:37.415Z,3.00
2019-05-22T16:43:09.534Z,3.47
2019-05-22T16:45:40.821Z,2.90
2019-05-22T16:48:27.621Z,2.98
2019-05-22T16:50:45.151Z,3.40
2019-05-22T16:53:17.836Z,2.90
2019-05-22T16:55:50.248Z,2.75
2019-05-22T16:58:21.651Z,2.80
2019-05-22T17:00:56.714Z,3.17
2019-05-22T17:03:29.613Z,3.00
2019-05-22T17:06:00.879Z,2.60
2019-05-22T17:08:32.269Z,1.93
2019-05-22T17:11:03.734Z,3.43
2019-05-22T17:13:34.909Z,3.00
2019-05-22T17:16:06.864Z,2.80
2019-05-22T17:18:47.439Z,2.80
2019-05-22T17:21:11.516Z,2.40
2019-05-22T17:23:43.434Z,2.50
2019-05-22T17:26:14.846Z,2.73
2019-05-22T17:28:46.011Z,2.53
2019-05-22T17:31:18.246Z,2.37
2019-05-22T17:33:49.263Z,2.23
2019-05-22T17:36:21.442Z,2.30
2019-05-22T17:38:52.814Z,2.47
2019-05-22T17:41:25.698Z,2.57
2019-05-22T17:43:57.479Z,2.23
2019-05-22T17:46:29.304Z,2.60
2019-05-22T17:49:00.873Z,2.57
2019-05-22T17:51:32.437Z,2.17
2019-05-22T17:54:04.583Z,3.07
2019-05-22T17:56:36.192Z,2.17
2019-05-22T17:59:07.240Z,2.67
2019-05-22T18:01:38.865Z,3.15
2019-05-22T18:04:10.217Z,2.83
2019-05-22T18:06:41.647Z,3.20
2019-05-22T18:09:13.039Z,2.95
2019-05-22T18:11:44.532Z,2.12
2019-05-22T18:14:16.131Z,2.40
2019-05-22T18:16:47.522Z,2.50
2019-05-22T18:19:19.077Z,2.57
2019-05-22T18:21:50.424Z,3.00
2019-05-22T18:24:22.447Z,2.63
2019-05-22T18:26:54.430Z,2.80
2019-05-22T18:29:26.490Z,2.63
2019-05-22T18:32:02.311Z,2.77
2019-05-22T18:34:33.409Z,2.50
2019-05-22T18:37:04.931Z,2.80
2019-05-22T18:39:36.528Z,2.30
2019-05-22T18:42:08.006Z,2.23
2019-05-22T18:44:39.138Z,2.50
2019-05-22T18:47:12.200Z,2.50
2019-05-22T18:49:43.256Z,2.10
2019-05-22T18:52:15.072Z,2.00
2019-05-22T18:54:46.253Z,2.77
2019-05-22T18:57:17.535Z,2.22
2019-05-22T18:59:48.780Z,2.13
2019-05-22T19:02:20.974Z,1.70
2019-05-22T19:04:52.591Z,2.60
2019-05-22T19:07:30.740Z,2.60
2019-05-22T19:10:02.800Z,2.60
2019-05-22T19:12:35.272Z,2.23
2019-05-22T19:15:06.577Z,2.63
2019-05-22T19:17:38.135Z,2.70
2019-05-22T19:20:10.641Z,3.37
2019-05-22T19:22:58.047Z,2.98
2019-05-22T19:25:15.814Z,2.13
2019-05-22T19:27:47.013Z,1.77
2019-05-22T19:30:20.743Z,2.57
2019-05-22T19:32:52.609Z,2.37
2019-05-22T19:35:23.730Z,2.30
2019-05-22T19:37:54.959Z,2.20
2019-05-22T19:40:26.227Z,2.67
2019-05-22T19:42:58.717Z,2.70
2019-05-22T19:45:31.035Z,3.20
2019-05-22T19:48:02.857Z,2.80
2019-05-22T19:50:34.636Z,2.93
2019-05-22T19:53:18.131Z,3.20
2019-05-22T19:55:38.620Z,3.20
2019-05-22T19:58:10.730Z,2.80
2019-05-22T20:00:43.159Z,2.93
2019-05-22T20:03:16.344Z,3.80
2019-05-22T20:05:47.533Z,4.57
2019-05-22T20:08:18.994Z,3.43
2019-05-22T20:10:51.621Z,3.70
2019-05-22T20:13:23.619Z,4.03
2019-05-22T20:15:55.372Z,4.27
2019-05-22T20:18:26.954Z,3.30
2019-05-22T20:20:58.589Z,3.70
2019-05-22T20:23:35.745Z,3.23
2019-05-22T20:26:03.375Z,3.33
2019-05-22T20:28:35.725Z,3.23
2019-05-22T20:31:07.550Z,3.33
2019-05-22T20:33:38.851Z,3.55
2019-05-22T20:36:10.774Z,3.67
2019-05-22T20:38:41.987Z,11.63
2019-05-22T20:41:13.869Z,5.80
2019-05-22T20:43:45.892Z,4.83
2019-05-22T20:46:18.677Z,4.50
2019-05-22T20:48:50.622Z,4.22
2019-05-22T20:51:21.796Z,3.90
2019-05-22T20:53:54.782Z,3.93
2019-05-22T20:56:27.912Z,3.70
2019-05-22T20:58:59.653Z,3.90
2019-05-22T21:01:33.249Z,4.10
2019-05-22T21:04:06.335Z,4.70
2019-05-22T21:06:41.518Z,4.57
2019-05-22T21:09:13.804Z,4.90
2019-05-22T21:11:45.161Z,3.90
2019-05-22T21:14:17.135Z,4.10
2019-05-22T21:16:48.261Z,4.13
2019-05-22T21:19:23.587Z,4.67
2019-05-22T21:21:56.550Z,4.27
2019-05-22T21:24:27.866Z,4.50
2019-05-22T21:26:59.045Z,4.73
2019-05-22T21:29:31.074Z,4.97
2019-05-22T21:32:02.994Z,4.90
2019-05-22T21:34:34.496Z,4.33
2019-05-22T21:37:06.528Z,4.40
2019-05-22T21:39:38.542Z,4.60
2019-05-22T21:42:10.301Z,5.23
2019-05-22T21:44:43.069Z,4.80
2019-05-22T21:47:14.854Z,4.60
2019-05-22T21:49:46.954Z,4.83
2019-05-22T21:52:18.618Z,4.93
2019-05-22T21:54:49.939Z,4.40
2019-05-22T21:57:20.989Z,4.90
2019-05-22T21:59:52.589Z,4.30
2019-05-22T22:02:32.827Z,5.13
2019-05-22T22:05:05.015Z,4.67
2019-05-22T22:07:37.066Z,5.12
2019-05-22T22:10:08.130Z,5.67
2019-05-22T22:12:39.833Z,5.10
2019-05-22T22:15:12.368Z,5.23
2019-05-22T22:17:44.446Z,4.83
2019-05-22T22:20:16.772Z,5.30
2019-05-22T22:22:48.986Z,5.17
2019-05-22T22:25:21.480Z,6.10
2019-05-22T22:27:52.881Z,4.83
2019-05-22T22:30:29.930Z,5.93
2019-05-22T22:33:04.281Z,6.57
2019-05-22T22:35:35.774Z,5.77
2019-05-22T22:38:09.178Z,5.35
2019-05-22T22:40:41.634Z,5.77
2019-05-22T22:43:14.136Z,5.60
2019-05-22T22:46:06.060Z,5.97
2019-05-22T22:48:39.588Z,5.43
2019-05-22T22:51:11.874Z,5.20
2019-05-22T22:53:43.743Z,5.30
2019-05-22T22:56:15.095Z,4.43
2019-05-22T22:58:46.237Z,5.22
2019-05-22T23:01:23.167Z,4.70
2019-05-22T23:03:56.618Z,5.50
2019-05-22T23:06:28.839Z,5.12
2019-05-22T23:09:00.792Z,5.50
2019-05-22T23:11:34.196Z,5.10
2019-05-22T23:14:06.068Z,4.70
2019-05-22T23:16:37.359Z,5.60
2019-05-22T23:19:44.368Z,5.33
2019-05-22T23:22:17.668Z,5.23
2019-05-22T23:24:51.967Z,5.35
2019-05-22T23:27:25.301Z,5.47
2019-05-22T23:29:57.664Z,6.37
2019-05-22T23:32:31.096Z,5.90
2019-05-22T23:35:02.621Z,6.97
2019-05-22T23:37:35.303Z,6.33
2019-05-22T23:40:08.250Z,6.53
2019-05-22T23:42:41.548Z,5.97
2019-05-22T23:45:15.243Z,6.03
2019-05-22T23:48:03.958Z,6.33
2019-05-22T23:50:38.114Z,6.13
2019-05-22T23:53:12.586Z,6.30
2019-05-22T23:55:44.162Z,6.47
2019-05-22T23:58:16.900Z,5.92
